sensor_id;sensor_type;location;lat;lon;timestamp;pressure;altitude;pressure_sealevel;temperature;humidity
64698;BME280;51124;53.394;-6.294;2023-07-09T00:00:13;100821.21;;;23.43;13.01
64698;BME280;51124;53.394;-6.294;2023-07-09T00:02:41;100821.83;;;23.29;13.08
64698;BME280;51124;53.394;-6.294;2023-07-09T00:05:15;100822.89;;;23.53;13.07
64698;BME280;51124;53.394;-6.294;2023-07-09T00:07:43;100825.70;;;23.42;13.06
64698;BME280;51124;53.394;-6.294;2023-07-09T00:10:16;100825.55;;;22.72;13.11
64698;BME280;51124;53.394;-6.294;2023-07-09T00:12:46;100826.44;;;23.33;13.07
64698;BME280;51124;53.394;-6.294;2023-07-09T00:15:14;100826.73;;;22.79;13.08
64698;BME280;51124;53.394;-6.294;2023-07-09T00:17:42;100837.28;;;22.92;13.07
64698;BME280;51124;53.394;-6.294;2023-07-09T00:20:13;100837.12;;;22.76;13.05
64698;BME280;51124;53.394;-6.294;2023-07-09T00:22:40;100831.90;;;23.10;13.08
64698;BME280;51124;53.394;-6.294;2023-07-09T00:25:10;100825.28;;;23.15;13.16
64698;BME280;51124;53.394;-6.294;2023-07-09T00:27:38;100829.26;;;22.77;13.20
64698;BME280;51124;53.394;-6.294;2023-07-09T00:30:08;100838.96;;;23.41;13.14
64698;BME280;51124;53.394;-6.294;2023-07-09T00:32:40;100841.16;;;22.74;13.12
64698;BME280;51124;53.394;-6.294;2023-07-09T00:35:08;100832.13;;;23.16;13.17
64698;BME280;51124;53.394;-6.294;2023-07-09T00:37:36;100828.53;;;23.03;13.21
64698;BME280;51124;53.394;-6.294;2023-07-09T00:40:04;100824.09;;;22.60;13.21
64698;BME280;51124;53.394;-6.294;2023-07-09T00:42:31;100828.50;;;22.82;13.18
64698;BME280;51124;53.394;-6.294;2023-07-09T00:44:58;100827.97;;;23.37;13.22
64698;BME280;51124;53.394;-6.294;2023-07-09T00:47:29;100829.89;;;23.02;13.24
64698;BME280;51124;53.394;-6.294;2023-07-09T00:50:06;100831.01;;;22.48;13.16
64698;BME280;51124;53.394;-6.294;2023-07-09T00:52:31;100832.36;;;22.90;13.16
64698;BME280;51124;53.394;-6.294;2023-07-09T00:55:03;100834.65;;;22.83;13.18
64698;BME280;51124;53.394;-6.294;2023-07-09T00:57:32;100833.47;;;22.81;13.23
64698;BME280;51124;53.394;-6.294;2023-07-09T01:00:05;100834.38;;;22.78;13.20
64698;BME280;51124;53.394;-6.294;2023-07-09T01:02:34;100830.49;;;23.13;13.14
64698;BME280;51124;53.394;-6.294;2023-07-09T01:05:03;100832.15;;;22.55;13.13
64698;BME280;51124;53.394;-6.294;2023-07-09T01:07:31;100829.12;;;22.49;13.15
64698;BME280;51124;53.394;-6.294;2023-07-09T01:09:59;100830.06;;;23.15;13.07
64698;BME280;51124;53.394;-6.294;2023-07-09T01:12:27;100833.04;;;23.27;13.16
64698;BME280;51124;53.394;-6.294;2023-07-09T01:14:56;100829.75;;;22.86;13.16
64698;BME280;51124;53.394;-6.294;2023-07-09T01:17:25;100826.40;;;23.00;13.10
64698;BME280;51124;53.394;-6.294;2023-07-09T01:19:52;100827.88;;;22.72;13.14
64698;BME280;51124;53.394;-6.294;2023-07-09T01:22:21;100828.94;;;23.22;13.14
64698;BME280;51124;53.394;-6.294;2023-07-09T01:24:52;100831.04;;;22.81;13.13
64698;BME280;51124;53.394;-6.294;2023-07-09T01:27:22;100835.36;;;22.79;13.16
64698;BME280;51124;53.394;-6.294;2023-07-09T01:29:51;100832.88;;;22.99;13.05
64698;BME280;51124;53.394;-6.294;2023-07-09T01:32:19;100835.72;;;22.90;13.20
64698;BME280;51124;53.394;-6.294;2023-07-09T01:34:50;100832.11;;;22.80;13.13
64698;BME280;51124;53.394;-6.294;2023-07-09T01:37:19;100835.71;;;24.00;13.12
64698;BME280;51124;53.394;-6.294;2023-07-09T01:39:47;100837.89;;;22.87;13.16
64698;BME280;51124;53.394;-6.294;2023-07-09T01:42:15;100835.57;;;22.63;13.18
64698;BME280;51124;53.394;-6.294;2023-07-09T01:44:42;100835.27;;;22.43;13.10
64698;BME280;51124;53.394;-6.294;2023-07-09T01:47:09;100831.62;;;23.30;13.04
64698;BME280;51124;53.394;-6.294;2023-07-09T01:49:37;100830.54;;;22.80;13.09
64698;BME280;51124;53.394;-6.294;2023-07-09T01:52:06;100833.86;;;23.44;13.05
64698;BME280;51124;53.394;-6.294;2023-07-09T01:54:34;100834.99;;;22.95;13.13
64698;BME280;51124;53.394;-6.294;2023-07-09T01:57:15;100835.97;;;22.73;13.17
64698;BME280;51124;53.394;-6.294;2023-07-09T01:59:33;100834.89;;;22.44;13.12
64698;BME280;51124;53.394;-6.294;2023-07-09T02:02:00;100831.90;;;23.52;12.96
64698;BME280;51124;53.394;-6.294;2023-07-09T02:04:28;100829.66;;;23.04;13.08
64698;BME280;51124;53.394;-6.294;2023-07-09T02:06:56;100827.02;;;22.88;13.06
64698;BME280;51124;53.394;-6.294;2023-07-09T02:09:23;100827.14;;;22.36;13.05
64698;BME280;51124;53.394;-6.294;2023-07-09T02:11:51;100824.67;;;23.34;12.95
64698;BME280;51124;53.394;-6.294;2023-07-09T02:14:18;100824.33;;;22.88;12.97
64698;BME280;51124;53.394;-6.294;2023-07-09T02:16:56;100824.93;;;23.84;12.98
64698;BME280;51124;53.394;-6.294;2023-07-09T02:19:23;100825.41;;;22.87;12.95
64698;BME280;51124;53.394;-6.294;2023-07-09T02:21:51;100830.58;;;22.77;13.00
64698;BME280;51124;53.394;-6.294;2023-07-09T02:24:18;100830.61;;;23.39;12.93
64698;BME280;51124;53.394;-6.294;2023-07-09T02:26:46;100826.56;;;23.59;12.89
64698;BME280;51124;53.394;-6.294;2023-07-09T02:29:13;100828.67;;;23.04;12.99
64698;BME280;51124;53.394;-6.294;2023-07-09T02:31:41;100827.34;;;22.67;12.94
64698;BME280;51124;53.394;-6.294;2023-07-09T02:34:08;100829.37;;;23.05;12.90
64698;BME280;51124;53.394;-6.294;2023-07-09T02:36:36;100826.73;;;22.76;12.98
64698;BME280;51124;53.394;-6.294;2023-07-09T02:39:03;100825.82;;;23.12;12.87
64698;BME280;51124;53.394;-6.294;2023-07-09T02:41:30;100820.36;;;22.61;13.00
64698;BME280;51124;53.394;-6.294;2023-07-09T02:43:58;100819.15;;;23.05;12.99
64698;BME280;51124;53.394;-6.294;2023-07-09T02:46:25;100820.91;;;22.86;13.02
64698;BME280;51124;53.394;-6.294;2023-07-09T02:48:53;100819.23;;;22.32;12.99
64698;BME280;51124;53.394;-6.294;2023-07-09T02:51:20;100815.83;;;22.59;13.01
64698;BME280;51124;53.394;-6.294;2023-07-09T02:53:48;100819.97;;;22.53;13.02
64698;BME280;51124;53.394;-6.294;2023-07-09T02:56:15;100818.21;;;23.15;12.92
64698;BME280;51124;53.394;-6.294;2023-07-09T02:58:43;100813.63;;;23.08;12.99
64698;BME280;51124;53.394;-6.294;2023-07-09T03:01:10;100813.19;;;22.88;13.07
64698;BME280;51124;53.394;-6.294;2023-07-09T03:03:38;100814.11;;;22.86;13.09
64698;BME280;51124;53.394;-6.294;2023-07-09T03:06:05;100816.39;;;22.81;13.07
64698;BME280;51124;53.394;-6.294;2023-07-09T03:08:33;100816.32;;;22.43;13.02
64698;BME280;51124;53.394;-6.294;2023-07-09T03:11:07;100811.33;;;22.67;12.93
64698;BME280;51124;53.394;-6.294;2023-07-09T03:13:36;100808.53;;;20.41;12.74
64698;BME280;51124;53.394;-6.294;2023-07-09T03:16:10;100812.66;;;22.88;12.44
64698;BME280;51124;53.394;-6.294;2023-07-09T03:18:38;100809.86;;;23.04;12.70
64698;BME280;51124;53.394;-6.294;2023-07-09T03:21:06;100806.14;;;23.47;12.77
64698;BME280;51124;53.394;-6.294;2023-07-09T03:23:34;100802.92;;;22.80;12.84
64698;BME280;51124;53.394;-6.294;2023-07-09T03:26:01;100799.23;;;22.66;12.96
64698;BME280;51124;53.394;-6.294;2023-07-09T03:28:29;100802.35;;;23.00;13.01
64698;BME280;51124;53.394;-6.294;2023-07-09T03:30:57;100800.27;;;22.95;12.92
64698;BME280;51124;53.394;-6.294;2023-07-09T03:33:25;100796.17;;;22.77;13.00
64698;BME280;51124;53.394;-6.294;2023-07-09T03:35:53;100793.02;;;22.25;12.94
64698;BME280;51124;53.394;-6.294;2023-07-09T03:38:20;100789.22;;;22.95;12.96
64698;BME280;51124;53.394;-6.294;2023-07-09T03:40:52;100791.08;;;22.63;13.14
64698;BME280;51124;53.394;-6.294;2023-07-09T03:43:20;100787.69;;;23.11;12.92
64698;BME280;51124;53.394;-6.294;2023-07-09T03:45:49;100793.45;;;22.57;13.01
64698;BME280;51124;53.394;-6.294;2023-07-09T03:48:18;100794.36;;;23.08;13.01
64698;BME280;51124;53.394;-6.294;2023-07-09T03:50:47;100795.78;;;22.67;13.13
64698;BME280;51124;53.394;-6.294;2023-07-09T03:53:16;100796.67;;;22.75;13.12
64698;BME280;51124;53.394;-6.294;2023-07-09T03:55:45;100794.63;;;22.15;13.14
64698;BME280;51124;53.394;-6.294;2023-07-09T03:58:13;100790.66;;;22.04;13.01
64698;BME280;51124;53.394;-6.294;2023-07-09T04:00:40;100789.26;;;22.70;12.97
64698;BME280;51124;53.394;-6.294;2023-07-09T04:03:08;100786.86;;;22.97;13.07
64698;BME280;51124;53.394;-6.294;2023-07-09T04:05:35;100783.10;;;23.58;13.00
64698;BME280;51124;53.394;-6.294;2023-07-09T04:08:03;100790.37;;;21.54;13.18
64698;BME280;51124;53.394;-6.294;2023-07-09T04:10:30;100794.41;;;22.82;13.04
64698;BME280;51124;53.394;-6.294;2023-07-09T04:12:58;100795.35;;;22.97;13.03
64698;BME280;51124;53.394;-6.294;2023-07-09T04:15:26;100799.05;;;22.52;13.11
64698;BME280;51124;53.394;-6.294;2023-07-09T04:17:53;100798.98;;;22.77;12.97
64698;BME280;51124;53.394;-6.294;2023-07-09T04:20:21;100801.68;;;22.63;13.09
64698;BME280;51124;53.394;-6.294;2023-07-09T04:22:49;100801.09;;;22.60;13.07
64698;BME280;51124;53.394;-6.294;2023-07-09T04:25:16;100798.53;;;23.18;13.07
64698;BME280;51124;53.394;-6.294;2023-07-09T04:27:44;100795.11;;;22.45;13.07
64698;BME280;51124;53.394;-6.294;2023-07-09T04:30:13;100796.68;;;22.27;13.09
64698;BME280;51124;53.394;-6.294;2023-07-09T04:32:42;100796.67;;;21.67;13.05
64698;BME280;51124;53.394;-6.294;2023-07-09T04:35:10;100796.74;;;22.43;13.12
64698;BME280;51124;53.394;-6.294;2023-07-09T04:37:38;100793.87;;;23.10;13.03
64698;BME280;51124;53.394;-6.294;2023-07-09T04:40:07;100793.70;;;23.05;12.94
64698;BME280;51124;53.394;-6.294;2023-07-09T04:42:35;100790.01;;;22.72;13.01
64698;BME280;51124;53.394;-6.294;2023-07-09T04:45:03;100790.88;;;22.55;13.12
64698;BME280;51124;53.394;-6.294;2023-07-09T04:47:30;100796.13;;;22.58;13.03
64698;BME280;51124;53.394;-6.294;2023-07-09T04:49:58;100790.79;;;22.73;13.02
64698;BME280;51124;53.394;-6.294;2023-07-09T04:52:26;100785.47;;;22.38;13.11
64698;BME280;51124;53.394;-6.294;2023-07-09T04:54:53;100782.01;;;22.88;12.96
64698;BME280;51124;53.394;-6.294;2023-07-09T04:57:21;100786.63;;;23.06;13.01
64698;BME280;51124;53.394;-6.294;2023-07-09T04:59:49;100783.06;;;22.65;13.09
64698;BME280;51124;53.394;-6.294;2023-07-09T05:02:16;100784.45;;;23.06;13.01
64698;BME280;51124;53.394;-6.294;2023-07-09T05:04:44;100787.88;;;22.23;13.11
64698;BME280;51124;53.394;-6.294;2023-07-09T05:07:11;100785.10;;;22.57;13.06
64698;BME280;51124;53.394;-6.294;2023-07-09T05:09:39;100782.75;;;23.28;13.02
64698;BME280;51124;53.394;-6.294;2023-07-09T05:12:07;100780.09;;;23.00;13.04
64698;BME280;51124;53.394;-6.294;2023-07-09T05:14:35;100778.02;;;22.69;13.09
64698;BME280;51124;53.394;-6.294;2023-07-09T05:17:03;100779.58;;;22.97;13.01
64698;BME280;51124;53.394;-6.294;2023-07-09T05:19:30;100780.66;;;22.18;13.18
64698;BME280;51124;53.394;-6.294;2023-07-09T05:21:58;100777.06;;;22.56;13.12
64698;BME280;51124;53.394;-6.294;2023-07-09T05:24:25;100774.11;;;22.64;13.16
64698;BME280;51124;53.394;-6.294;2023-07-09T05:26:53;100771.71;;;22.53;13.04
64698;BME280;51124;53.394;-6.294;2023-07-09T05:29:20;100773.06;;;23.11;13.08
64698;BME280;51124;53.394;-6.294;2023-07-09T05:31:48;100771.23;;;23.03;13.11
64698;BME280;51124;53.394;-6.294;2023-07-09T05:34:15;100768.80;;;23.72;13.08
64698;BME280;51124;53.394;-6.294;2023-07-09T05:36:43;100763.33;;;23.07;13.16
64698;BME280;51124;53.394;-6.294;2023-07-09T05:39:10;100757.05;;;22.80;13.12
64698;BME280;51124;53.394;-6.294;2023-07-09T05:41:38;100759.12;;;23.23;13.28
64698;BME280;51124;53.394;-6.294;2023-07-09T05:44:06;100760.41;;;22.90;13.16
64698;BME280;51124;53.394;-6.294;2023-07-09T05:46:36;100763.30;;;22.88;13.22
64698;BME280;51124;53.394;-6.294;2023-07-09T05:49:04;100767.27;;;22.95;13.07
64698;BME280;51124;53.394;-6.294;2023-07-09T05:51:31;100764.37;;;22.46;13.38
64698;BME280;51124;53.394;-6.294;2023-07-09T05:53:59;100759.36;;;23.03;13.20
64698;BME280;51124;53.394;-6.294;2023-07-09T05:56:27;100757.39;;;22.84;13.15
64698;BME280;51124;53.394;-6.294;2023-07-09T05:58:55;100756.92;;;22.77;13.22
64698;BME280;51124;53.394;-6.294;2023-07-09T06:01:21;100753.68;;;22.93;13.22
64698;BME280;51124;53.394;-6.294;2023-07-09T06:03:46;100753.48;;;23.18;13.22
64698;BME280;51124;53.394;-6.294;2023-07-09T06:06:10;100756.51;;;23.04;13.17
64698;BME280;51124;53.394;-6.294;2023-07-09T06:08:44;100762.96;;;23.21;13.34
64698;BME280;51124;53.394;-6.294;2023-07-09T06:11:17;100760.60;;;23.09;13.24
64698;BME280;51124;53.394;-6.294;2023-07-09T06:13:51;100761.50;;;22.71;13.22
64698;BME280;51124;53.394;-6.294;2023-07-09T06:16:25;100759.92;;;22.91;13.31
64698;BME280;51124;53.394;-6.294;2023-07-09T06:19:00;100759.52;;;22.70;13.36
64698;BME280;51124;53.394;-6.294;2023-07-09T06:21:26;100757.83;;;23.40;13.22
64698;BME280;51124;53.394;-6.294;2023-07-09T06:23:51;100759.50;;;23.02;13.25
64698;BME280;51124;53.394;-6.294;2023-07-09T06:26:17;100758.56;;;23.34;13.23
64698;BME280;51124;53.394;-6.294;2023-07-09T06:28:42;100762.06;;;23.00;13.27
64698;BME280;51124;53.394;-6.294;2023-07-09T06:31:07;100765.45;;;22.70;13.19
64698;BME280;51124;53.394;-6.294;2023-07-09T06:33:33;100765.92;;;23.22;13.18
64698;BME280;51124;53.394;-6.294;2023-07-09T06:36:00;100766.80;;;22.95;13.22
64698;BME280;51124;53.394;-6.294;2023-07-09T06:38:26;100766.56;;;23.06;13.25
64698;BME280;51124;53.394;-6.294;2023-07-09T06:40:52;100766.65;;;23.15;12.97
64698;BME280;51124;53.394;-6.294;2023-07-09T06:43:18;100769.16;;;22.35;13.21
64698;BME280;51124;53.394;-6.294;2023-07-09T06:45:50;100769.95;;;23.39;13.46
64698;BME280;51124;53.394;-6.294;2023-07-09T06:48:16;100764.17;;;22.85;13.36
64698;BME280;51124;53.394;-6.294;2023-07-09T06:50:41;100765.05;;;23.11;13.32
64698;BME280;51124;53.394;-6.294;2023-07-09T06:53:07;100758.51;;;22.37;13.65
64698;BME280;51124;53.394;-6.294;2023-07-09T06:55:33;100756.13;;;22.99;13.77
64698;BME280;51124;53.394;-6.294;2023-07-09T06:57:58;100755.12;;;22.85;13.74
64698;BME280;51124;53.394;-6.294;2023-07-09T07:00:26;100757.92;;;23.97;13.56
64698;BME280;51124;53.394;-6.294;2023-07-09T07:02:53;100756.67;;;22.81;13.79
64698;BME280;51124;53.394;-6.294;2023-07-09T07:05:20;100751.95;;;24.04;13.37
64698;BME280;51124;53.394;-6.294;2023-07-09T07:07:48;100746.12;;;23.60;13.53
64698;BME280;51124;53.394;-6.294;2023-07-09T07:10:16;100749.87;;;23.08;13.73
64698;BME280;51124;53.394;-6.294;2023-07-09T07:12:45;100751.40;;;23.64;13.62
64698;BME280;51124;53.394;-6.294;2023-07-09T07:15:14;100746.24;;;23.65;13.41
64698;BME280;51124;53.394;-6.294;2023-07-09T07:17:40;100749.54;;;23.30;13.65
64698;BME280;51124;53.394;-6.294;2023-07-09T07:20:07;100745.32;;;23.56;13.70
64698;BME280;51124;53.394;-6.294;2023-07-09T07:22:35;100741.67;;;23.34;13.70
64698;BME280;51124;53.394;-6.294;2023-07-09T07:25:02;100743.60;;;23.36;13.83
64698;BME280;51124;53.394;-6.294;2023-07-09T07:27:30;100741.03;;;23.38;13.77
64698;BME280;51124;53.394;-6.294;2023-07-09T07:29:58;100737.22;;;23.27;13.77
64698;BME280;51124;53.394;-6.294;2023-07-09T07:32:26;100732.67;;;23.16;13.81
64698;BME280;51124;53.394;-6.294;2023-07-09T07:34:53;100731.21;;;23.11;13.84
64698;BME280;51124;53.394;-6.294;2023-07-09T07:37:21;100739.41;;;23.45;13.92
64698;BME280;51124;53.394;-6.294;2023-07-09T07:39:48;100743.92;;;23.14;13.71
64698;BME280;51124;53.394;-6.294;2023-07-09T07:42:16;100746.67;;;23.68;13.65
64698;BME280;51124;53.394;-6.294;2023-07-09T07:44:44;100759.14;;;22.99;13.76
64698;BME280;51124;53.394;-6.294;2023-07-09T07:47:11;100763.78;;;23.31;13.70
64698;BME280;51124;53.394;-6.294;2023-07-09T07:49:38;100758.35;;;23.34;13.76
64698;BME280;51124;53.394;-6.294;2023-07-09T07:52:07;100760.95;;;24.05;13.60
64698;BME280;51124;53.394;-6.294;2023-07-09T07:54:32;100761.56;;;23.74;13.67
64698;BME280;51124;53.394;-6.294;2023-07-09T07:56:58;100753.54;;;23.66;13.64
64698;BME280;51124;53.394;-6.294;2023-07-09T07:59:24;100750.84;;;23.61;13.67
64698;BME280;51124;53.394;-6.294;2023-07-09T08:01:49;100754.39;;;23.03;13.77
64698;BME280;51124;53.394;-6.294;2023-07-09T08:04:15;100752.61;;;23.31;13.63
64698;BME280;51124;53.394;-6.294;2023-07-09T08:06:40;100751.06;;;22.67;13.72
64698;BME280;51124;53.394;-6.294;2023-07-09T08:09:05;100747.12;;;23.91;13.63
64698;BME280;51124;53.394;-6.294;2023-07-09T08:11:31;100751.52;;;23.20;13.65
64698;BME280;51124;53.394;-6.294;2023-07-09T08:13:56;100756.51;;;23.50;13.47
64698;BME280;51124;53.394;-6.294;2023-07-09T08:16:22;100758.24;;;23.25;13.30
64698;BME280;51124;53.394;-6.294;2023-07-09T08:18:47;100747.19;;;22.42;13.21
64698;BME280;51124;53.394;-6.294;2023-07-09T08:21:13;100749.24;;;23.60;13.24
64698;BME280;51124;53.394;-6.294;2023-07-09T08:23:39;100745.74;;;23.52;13.22
64698;BME280;51124;53.394;-6.294;2023-07-09T08:26:05;100746.34;;;23.55;13.42
64698;BME280;51124;53.394;-6.294;2023-07-09T08:28:31;100756.37;;;23.38;13.31
64698;BME280;51124;53.394;-6.294;2023-07-09T08:30:57;100757.74;;;23.45;13.26
64698;BME280;51124;53.394;-6.294;2023-07-09T08:33:23;100765.09;;;23.72;13.37
64698;BME280;51124;53.394;-6.294;2023-07-09T08:35:50;100760.85;;;23.63;13.32
64698;BME280;51124;53.394;-6.294;2023-07-09T08:38:16;100757.87;;;23.78;13.45
64698;BME280;51124;53.394;-6.294;2023-07-09T08:40:43;100753.29;;;23.85;13.31
64698;BME280;51124;53.394;-6.294;2023-07-09T08:43:29;100756.51;;;23.56;13.53
64698;BME280;51124;53.394;-6.294;2023-07-09T08:45:50;100749.76;;;23.68;13.36
64698;BME280;51124;53.394;-6.294;2023-07-09T08:48:26;100755.64;;;23.32;13.38
64698;BME280;51124;53.394;-6.294;2023-07-09T08:50:56;100743.45;;;23.25;13.51
64698;BME280;51124;53.394;-6.294;2023-07-09T08:53:33;100748.35;;;23.23;13.63
64698;BME280;51124;53.394;-6.294;2023-07-09T08:55:52;100749.65;;;22.96;13.65
64698;BME280;51124;53.394;-6.294;2023-07-09T08:58:24;100758.42;;;23.81;13.53
64698;BME280;51124;53.394;-6.294;2023-07-09T09:00:55;100767.29;;;23.08;13.66
64698;BME280;51124;53.394;-6.294;2023-07-09T09:03:31;100755.62;;;23.39;13.60
64698;BME280;51124;53.394;-6.294;2023-07-09T09:05:51;100753.76;;;23.26;13.61
64698;BME280;51124;53.394;-6.294;2023-07-09T09:08:33;100753.75;;;23.17;13.56
64698;BME280;51124;53.394;-6.294;2023-07-09T09:10:56;100758.96;;;23.23;13.59
64698;BME280;51124;53.394;-6.294;2023-07-09T09:13:30;100768.15;;;23.48;13.55
64698;BME280;51124;53.394;-6.294;2023-07-09T09:16:01;100764.25;;;24.09;13.41
64698;BME280;51124;53.394;-6.294;2023-07-09T09:18:34;100766.24;;;23.21;13.43
64698;BME280;51124;53.394;-6.294;2023-07-09T09:21:12;100773.35;;;23.65;13.38
64698;BME280;51124;53.394;-6.294;2023-07-09T09:23:39;100777.10;;;23.96;13.47
64698;BME280;51124;53.394;-6.294;2023-07-09T09:25:59;100771.06;;;23.33;13.42
64698;BME280;51124;53.394;-6.294;2023-07-09T09:28:29;100762.34;;;24.06;13.41
64698;BME280;51124;53.394;-6.294;2023-07-09T09:30:56;100769.43;;;23.75;13.38
64698;BME280;51124;53.394;-6.294;2023-07-09T09:33:24;100775.18;;;23.76;13.22
64698;BME280;51124;53.394;-6.294;2023-07-09T09:36:00;100772.91;;;23.10;13.20
64698;BME280;51124;53.394;-6.294;2023-07-09T09:38:20;100779.39;;;23.69;13.26
64698;BME280;51124;53.394;-6.294;2023-07-09T09:40:49;100775.88;;;23.70;13.25
64698;BME280;51124;53.394;-6.294;2023-07-09T09:43:19;100776.80;;;23.44;13.39
64698;BME280;51124;53.394;-6.294;2023-07-09T09:45:49;100775.09;;;24.54;13.28
64698;BME280;51124;53.394;-6.294;2023-07-09T09:48:19;100772.92;;;23.60;13.45
64698;BME280;51124;53.394;-6.294;2023-07-09T09:50:48;100771.01;;;23.91;13.37
64698;BME280;51124;53.394;-6.294;2023-07-09T09:53:21;100772.74;;;24.40;13.34
64698;BME280;51124;53.394;-6.294;2023-07-09T09:55:50;100771.93;;;23.97;13.33
64698;BME280;51124;53.394;-6.294;2023-07-09T09:58:19;100764.90;;;23.66;13.38
64698;BME280;51124;53.394;-6.294;2023-07-09T10:00:52;100759.38;;;23.67;13.36
64698;BME280;51124;53.394;-6.294;2023-07-09T10:03:20;100764.05;;;22.64;13.47
64698;BME280;51124;53.394;-6.294;2023-07-09T10:05:53;100759.60;;;23.73;13.36
64698;BME280;51124;53.394;-6.294;2023-07-09T10:08:32;100758.31;;;23.79;13.25
64698;BME280;51124;53.394;-6.294;2023-07-09T10:11:01;100760.80;;;23.74;13.26
64698;BME280;51124;53.394;-6.294;2023-07-09T10:13:26;100758.53;;;23.23;13.24
64698;BME280;51124;53.394;-6.294;2023-07-09T10:16:05;100757.91;;;23.44;13.34
64698;BME280;51124;53.394;-6.294;2023-07-09T10:18:32;100754.50;;;24.19;13.22
64698;BME280;51124;53.394;-6.294;2023-07-09T10:20:56;100751.38;;;22.89;13.27
64698;BME280;51124;53.394;-6.294;2023-07-09T10:23:22;100747.87;;;23.46;13.28
64698;BME280;51124;53.394;-6.294;2023-07-09T10:25:53;100745.56;;;23.08;13.34
64698;BME280;51124;53.394;-6.294;2023-07-09T10:28:31;100743.56;;;23.19;13.37
64698;BME280;51124;53.394;-6.294;2023-07-09T10:30:56;100746.77;;;23.71;13.34
64698;BME280;51124;53.394;-6.294;2023-07-09T10:33:20;100743.74;;;24.28;13.37
64698;BME280;51124;53.394;-6.294;2023-07-09T10:35:52;100735.85;;;24.11;13.35
64698;BME280;51124;53.394;-6.294;2023-07-09T10:38:30;100726.32;;;24.54;13.35
64698;BME280;51124;53.394;-6.294;2023-07-09T10:40:52;100729.23;;;23.79;13.42
64698;BME280;51124;53.394;-6.294;2023-07-09T10:43:21;100728.18;;;23.59;13.44
64698;BME280;51124;53.394;-6.294;2023-07-09T10:45:50;100723.56;;;23.92;13.46
64698;BME280;51124;53.394;-6.294;2023-07-09T10:48:20;100715.45;;;23.82;13.40
64698;BME280;51124;53.394;-6.294;2023-07-09T10:50:53;100715.81;;;23.42;13.43
64698;BME280;51124;53.394;-6.294;2023-07-09T10:53:26;100711.34;;;23.30;13.49
64698;BME280;51124;53.394;-6.294;2023-07-09T10:55:50;100710.78;;;24.21;13.47
64698;BME280;51124;53.394;-6.294;2023-07-09T10:58:27;100703.75;;;23.93;13.51
64698;BME280;51124;53.394;-6.294;2023-07-09T11:00:43;100710.81;;;23.54;13.49
64698;BME280;51124;53.394;-6.294;2023-07-09T11:03:15;100717.00;;;23.30;13.49
64698;BME280;51124;53.394;-6.294;2023-07-09T11:05:42;100716.76;;;24.02;13.49
64698;BME280;51124;53.394;-6.294;2023-07-09T11:08:12;100708.95;;;23.63;13.56
64698;BME280;51124;53.394;-6.294;2023-07-09T11:10:44;100704.44;;;23.54;13.61
64698;BME280;51124;53.394;-6.294;2023-07-09T11:13:13;100703.84;;;23.56;13.61
64698;BME280;51124;53.394;-6.294;2023-07-09T11:15:43;100708.54;;;23.23;13.54
64698;BME280;51124;53.394;-6.294;2023-07-09T11:18:16;100710.20;;;23.99;13.51
64698;BME280;51124;53.394;-6.294;2023-07-09T11:20:41;100708.84;;;23.66;13.70
64698;BME280;51124;53.394;-6.294;2023-07-09T11:23:20;100704.76;;;22.91;13.54
64698;BME280;51124;53.394;-6.294;2023-07-09T11:25:44;100705.63;;;23.53;13.53
64698;BME280;51124;53.394;-6.294;2023-07-09T11:28:09;100707.46;;;22.85;13.62
64698;BME280;51124;53.394;-6.294;2023-07-09T11:30:46;100706.42;;;23.61;13.43
64698;BME280;51124;53.394;-6.294;2023-07-09T11:33:04;100709.09;;;23.93;13.44
64698;BME280;51124;53.394;-6.294;2023-07-09T11:35:42;100715.60;;;24.02;13.32
64698;BME280;51124;53.394;-6.294;2023-07-09T11:38:12;100719.46;;;23.33;13.53
64698;BME280;51124;53.394;-6.294;2023-07-09T11:40:28;100719.01;;;24.07;13.33
64698;BME280;51124;53.394;-6.294;2023-07-09T11:43:02;100720.00;;;24.13;13.48
64698;BME280;51124;53.394;-6.294;2023-07-09T11:45:35;100722.87;;;23.46;13.34
64698;BME280;51124;53.394;-6.294;2023-07-09T11:48:24;100725.79;;;23.95;13.30
64698;BME280;51124;53.394;-6.294;2023-07-09T11:50:42;100731.93;;;23.81;13.31
64698;BME280;51124;53.394;-6.294;2023-07-09T11:53:22;100731.14;;;24.10;13.30
64698;BME280;51124;53.394;-6.294;2023-07-09T11:55:41;100731.89;;;23.74;13.44
64698;BME280;51124;53.394;-6.294;2023-07-09T11:58:07;100738.11;;;23.60;13.44
64698;BME280;51124;53.394;-6.294;2023-07-09T12:00:37;100736.14;;;24.18;13.45
64698;BME280;51124;53.394;-6.294;2023-07-09T12:03:01;100736.87;;;23.97;13.52
64698;BME280;51124;53.394;-6.294;2023-07-09T12:05:35;100727.06;;;23.69;13.50
64698;BME280;51124;53.394;-6.294;2023-07-09T12:08:12;100731.96;;;23.46;13.45
64698;BME280;51124;53.394;-6.294;2023-07-09T12:10:38;100735.71;;;23.62;13.41
64698;BME280;51124;53.394;-6.294;2023-07-09T12:13:13;100729.82;;;24.93;13.21
64698;BME280;51124;53.394;-6.294;2023-07-09T12:15:47;100732.71;;;24.44;13.30
64698;BME280;51124;53.394;-6.294;2023-07-09T12:18:21;100724.21;;;24.15;13.33
64698;BME280;51124;53.394;-6.294;2023-07-09T12:20:57;100727.64;;;25.15;13.23
64698;BME280;51124;53.394;-6.294;2023-07-09T12:23:26;100723.45;;;24.03;13.18
64698;BME280;51124;53.394;-6.294;2023-07-09T12:25:53;100717.48;;;24.46;13.19
64698;BME280;51124;53.394;-6.294;2023-07-09T12:28:19;100717.51;;;24.04;13.15
64698;BME280;51124;53.394;-6.294;2023-07-09T12:30:46;100714.61;;;25.17;13.16
64698;BME280;51124;53.394;-6.294;2023-07-09T12:33:18;100711.47;;;24.53;13.12
64698;BME280;51124;53.394;-6.294;2023-07-09T12:35:55;100704.68;;;24.10;13.13
64698;BME280;51124;53.394;-6.294;2023-07-09T12:38:19;100701.36;;;24.01;13.11
64698;BME280;51124;53.394;-6.294;2023-07-09T12:40:45;100703.43;;;24.51;13.11
64698;BME280;51124;53.394;-6.294;2023-07-09T12:43:12;100701.67;;;24.34;13.26
64698;BME280;51124;53.394;-6.294;2023-07-09T12:45:37;100697.52;;;23.85;13.34